• Join FlightAware (Why Join?)
  • Login
  • US Flag 
Rudolph Flight #1: Arrived! 
10:23PM EST


 

Airport Tracker/Info


-or-


 

Live Flight TrackerFlight Track Log ✈ N983CA ✈ 23-Apr-2013 ✈ KTUS - KSFO

Flight Track Log - Related Links

Times and Time Zones

All times are in EDT time to prevent confusion due to time zone crossing. See the N983CA flight status page for this flight to view local times or setup timezone preferences in your user account.

Time Position Orientation Groundspeed Altitude Reporting Facility
EDT Latitude Longitude Course Direction KTS MPH feet Rate Location/Type
04:32PM 32.1497 -110.9853 311° West 190 219 4,800  Level Albuquerque Center
04:33PM 32.1917 -111.0469 309° West 240 276 7,000 2,220 Climbing Albuquerque Center
04:34PM 32.2546 -111.3530 278° West  Level FlightAware Approximate
04:34PM 32.2319 -111.1217 303° West 274 315 9,300  Level Albuquerque Center
04:35PM 32.2792 -111.4688 308° West  Level FlightAware Approximate
04:35PM 32.2789 -111.2158 301° West 284 327 11,900  Level Albuquerque Center
04:36PM 32.3431 -111.5646 308° West  Level FlightAware Approximate
04:36PM 32.2919 -111.3125 279° West 292 336 14,400  Level Albuquerque Center
04:37PM 32.3047 -111.4103 279° West 299 344 16,600 1,860 Climbing Albuquerque Center
04:38PM 32.3208 -111.5078 281° West 302 348 18,300 1,560 Climbing Albuquerque Center
04:39PM 32.3700 -111.5964 303° West 320 368 19,900 1,740 Climbing Albuquerque Center
04:40PM 32.4278 -111.7025 303° West 320 368 22,000 1,680 Climbing Albuquerque Center
04:41PM 32.4778 -111.7906 304° West 321 369 23,400 1,320 Climbing Albuquerque Center
04:42PM 32.5294 -111.8844 303° West 332 382 24,800 1,260 Climbing Albuquerque Center
04:43PM 32.5806 -111.9781 303° West 337 388 26,100 1,140 Climbing Albuquerque Center
04:44PM 32.6311 -112.0700 303° West 335 386 27,200 960 Climbing Albuquerque Center
04:45PM 32.6828 -112.1658 303° West 339 390 28,100 840 Climbing Albuquerque Center
04:46PM 32.7392 -112.2689 303° West 345 397 29,000 780 Climbing Albuquerque Center
04:47PM 32.7911 -112.3669 302° West 350 403 29,800 780 Climbing Albuquerque Center
04:48PM 32.8564 -112.4847 303° West 356 410 30,700 780 Climbing Albuquerque Center
04:49PM 32.9094 -112.5833 303° West 356 410 31,500 600 Climbing Albuquerque Center
04:50PM 32.9644 -112.6822 304° West 359 413 32,000 240 Climbing Albuquerque Center
04:51PM 33.0342 -112.7733 312° West 371 427 32,000  Level Albuquerque Center
04:52PM 33.1014 -112.8625 312° West 368 423 32,000  Level Albuquerque Center
04:53PM 33.1814 -112.9686 312° West 361 415 32,000  Level Albuquerque Center
04:54PM 33.2464 -113.0553 312° West 355 409 32,000  Level Albuquerque Center
04:55PM 33.3119 -113.1442 311° West 355 409 32,000  Level Albuquerque Center
04:56PM 33.3769 -113.2328 311° West 356 410 32,000  Level Albuquerque Center
04:57PM 33.4414 -113.3197 312° West 354 407 32,000  Level Albuquerque Center
04:58PM 33.5075 -113.4078 312° West 355 409 32,000  Level Albuquerque Center
05:00PM 33.5825 -113.5164 310° West 353 406 32,000  Level Albuquerque Center
05:01PM 33.6075 -113.6269 285° West 347 399 32,000  Level Albuquerque Center
05:02PM 33.6286 -113.7425 282° West 351 404 32,000  Level Albuquerque Center
05:03PM 33.6533 -113.8561 285° West 352 405 32,000  Level Albuquerque Center
05:04PM 33.6836 -113.9692 288° West 355 409 32,000  Level Albuquerque Center
05:05PM 33.7117 -114.0839 286° West 358 412 32,000  Level Albuquerque Center
05:06PM 33.7411 -114.1989 287° West 360 414 32,000  Level Albuquerque Center
05:07PM 33.7725 -114.3339 286° West 358 412 32,000  Level Albuquerque Center
05:08PM 33.8019 -114.4483 287° West 359 413 32,000  Level Albuquerque Center
05:09PM 33.8311 -114.5617 287° West 357 411 32,000  Level Albuquerque Center
05:10PM 33.8678 -114.7119 286° West 362 417 32,000  Level Los Angeles Center
05:11PM 33.8958 -114.8278 286° West 362 417 32,000  Level Los Angeles Center
05:12PM 33.9244 -114.9453 286° West 366 421 32,000  Level Los Angeles Center
05:13PM 33.9522 -115.0611 286° West 364 419 32,000  Level Los Angeles Center
05:14PM 33.9797 -115.1781 286° West 364 419 32,000  Level Los Angeles Center
05:15PM 34.0128 -115.3181 286° West 363 418 32,000  Level Los Angeles Center
05:16PM 34.0417 -115.4367 286° West 368 423 32,000  Level Los Angeles Center
05:17PM 34.0689 -115.5553 286° West 369 425 32,000  Level Los Angeles Center
05:18PM 34.0969 -115.6731 286° West 367 422 32,000  Level Los Angeles Center
05:19PM 34.1253 -115.7928 286° West 371 427 32,000  Level Los Angeles Center
05:20PM 34.1547 -115.9197 286° West 369 425 32,000  Level Los Angeles Center
05:21PM 34.1817 -116.0389 285° West 369 425 32,000  Level Los Angeles Center
05:22PM 34.2158 -116.1833 286° West 373 429 32,000  Level Los Angeles Center
05:23PM 34.2425 -116.3039 285° West 371 427 32,000  Level Los Angeles Center
05:25PM 34.2700 -116.4247 285° West 373 429 32,000  Level Los Angeles Center
05:26PM 34.2978 -116.5431 286° West 369 425 32,000  Level Los Angeles Center
05:27PM 34.3253 -116.6636 285° West 371 427 32,000  Level Los Angeles Center
05:28PM 34.3525 -116.7847 285° West 374 430 32,000  Level Los Angeles Center
05:29PM 34.3856 -116.9303 285° West 374 430 32,000  Level Los Angeles Center
05:30PM 34.4125 -117.0536 285° West 377 434 32,000  Level Los Angeles Center
05:31PM 34.4394 -117.1756 285° West 376 433 32,000  Level Los Angeles Center
05:32PM 34.4669 -117.2994 285° West 379 436 32,000  Level Los Angeles Center
05:33PM 34.4933 -117.4233 285° West 378 435 32,000  Level Los Angeles Center
05:34PM 34.5203 -117.5483 285° West 381 438 32,000  Level Los Angeles Center
05:35PM 34.5481 -117.6739 285° West 383 441 32,000  Level Los Angeles Center
05:36PM 34.5808 -117.8239 285° West 383 441 32,000  Level Los Angeles Center
05:37PM 34.6067 -117.9511 284° West 386 444 32,000  Level Los Angeles Center
05:38PM 34.6397 -118.0739 288° West 385 443 32,000  Level Los Angeles Center
05:39PM 34.7078 -118.1756 309° West 389 448 32,000  Level Los Angeles Center
05:40PM 34.7778 -118.2756 310° West 387 445 32,000  Level Los Angeles Center
05:41PM 34.8494 -118.3789 310° West 392 451 32,000  Level Los Angeles Center
05:42PM 34.9233 -118.4883 309° West 392 451 32,000  Level Los Angeles Center
05:43PM 34.9903 -118.5872 310° West 385 443 32,000  Level Los Angeles Center
05:44PM 35.0608 -118.7217 303° West 395 455 32,000  Level Los Angeles Center
05:45PM 35.1083 -118.8383 296° West 390 449 32,000  Level Los Angeles Center
05:46PM 35.1547 -118.9581 295° West 392 451 32,000  Level Los Angeles Center
05:47PM 35.2022 -119.0767 296° West 390 449 32,000  Level Los Angeles Center
05:48PM 35.2511 -119.1975 296° West 396 456 32,000  Level Los Angeles Center
05:49PM 35.2964 -119.3181 295° West 393 452 32,000  Level Los Angeles Center
05:50PM 35.3528 -119.4617 296° West 392 451 32,000  Level Los Angeles Center
05:51PM 35.3983 -119.5833 295° West 396 456 32,000  Level Los Angeles Center
05:53PM 35.4417 -119.7017 294° West 394 453 32,000  Level Oakland Center
05:54PM 35.4872 -119.8236 295° West 395 455 32,000  Level Oakland Center
05:55PM 35.5333 -119.9444 295° West 396 456 32,000  Level Oakland Center
05:56PM 35.5883 -120.0897 295° West 394 453 32,000  Level Oakland Center
05:57PM 35.6342 -120.2117 295° West 398 458 32,000  Level Oakland Center
05:58PM 35.6794 -120.3336 295° West 398 458 32,000  Level Oakland Center
05:59PM 35.7325 -120.4514 299° West 401 461 32,000  Level Oakland Center
06:00PM 35.8039 -120.5544 311° West 399 459 32,000  Level Oakland Center
06:01PM 35.8758 -120.6581 311° West 399 459 32,000  Level Oakland Center
06:02PM 35.9608 -120.7853 310° West 403 464 32,000  Level Oakland Center
06:03PM 36.0333 -120.8903 311° West 403 464 32,000  Level Oakland Center
06:04PM 36.1044 -120.9947 310° West 398 458 32,000  Level Oakland Center
06:05PM 36.1750 -121.0992 310° West 396 456 32,000  Level Oakland Center
06:06PM 36.2444 -121.2042 309° West 395 455 32,000  Level Oakland Center
06:07PM 36.3147 -121.3072 310° West 393 452 32,000 -180 Level Oakland Center
06:08PM 36.3839 -121.4106 310° West 391 450 31,700 -1,200 Descending Oakland Center
06:09PM 36.4550 -121.5197 309° West 407 468 29,600 -2,280 Descending Oakland Center
06:10PM 36.5236 -121.6231 310° West 390 449 27,100 -2,700 Descending Oakland Center
06:11PM 36.6008 -121.7439 309° West 371 427 24,100 -2,640 Descending Oakland Center
06:12PM 36.6608 -121.8358 309° West 370 426 21,800 -2,400 Descending Oakland Center
06:13PM 36.7236 -121.9308 310° West 355 409 19,300 -2,460 Descending Oakland Center
06:14PM 36.8042 -121.9822 333° Northwest 339 390 16,800 -2,460 Descending Oakland Center
06:15PM 36.8967 -122.0039 349° North 336 387 14,300 -2,460 Descending Oakland Center
06:16PM 36.9858 -122.0267 348° North 328 377 11,800 -2,100 Descending Oakland Center
06:17PM 37.0894 -122.0536 348° North 316 364 10,000 -1,380 Descending Oakland Center
06:18PM 37.1672 -122.0733 349° North 288 331 9,000 -1,020 Descending Oakland Center
06:19PM 37.2431 -122.0925 349° North 280 322 8,000 -1,020 Descending Oakland Center
06:20PM 37.3144 -122.1133 347° North 266 306 7,000 -1,200 Descending Oakland Center
06:21PM 37.3833 -122.1311 348° North 254 292 5,600 -1,020 Descending Oakland Center
06:22PM 37.4431 -122.1469 348° North 228 262 5,000 -720 Descending Oakland Center
06:23PM 37.4931 -122.1603 348° North 196 226 4,200 -1,020 Descending Oakland Center
06:24PM 37.5347 -122.1925 328° Northwest 182 209 3,000 -1,140 Descending Oakland Center
06:25PM 37.5642 -122.2439 306° West 180 207 2,000 -1,020 Descending Oakland Center